Latest Weather Observations for Lameroo AWS

IDS60801

Issued at 10:31 am CDT Sunday 28 November 2021 (issued every 10 minutes, with the page automatically refreshed every 10 minutes)

About weather observations | Map of weather stations | Latest weather observations for SA | Other Formats
Station Details ID: 025562 Name: AUSTIN PLAINS Lat: -35.38 Lon: 140.54 Height: 110.08 m
Data from the previous 72 hours. | See also: Recent months at Lameroo AWS
Date/Time
CDT
Temp
°C
App
Temp
°C
Dew
Point
°C
Rel
Hum
%
Delta-T
°C
Wind Press
QNH
hPa
Press
MSL
hPa
Rain since
9am
mm
Dir  Spd
km/h
Gust
km/h
Spd
kts
Gust
kts
28/10:30am 23.3 20.3 6.1 33 8.8 SE 11 22 6 12 1021.0 1020.8 0.0
28/10:00am 22.2 19.9 7.6 39 7.6 SSE 9 17 5 9 1021.3 1021.1 0.0
28/09:30am 21.3 19.6 8.2 43 6.9 SE 7 13 4 7 1021.7 1021.5 0.0
28/09:00am 20.0 17.5 8.0 46 6.2 ESE 11 17 6 9 1021.7 1021.5 0.0
28/08:30am 18.8 15.2 8.2 50 5.5 E 17 22 9 12 1021.7 1021.5 0.0
28/08:00am 17.4 13.3 8.5 56 4.6 E 20 26 11 14 1021.5 1021.3 0.0
28/07:30am 15.8 11.6 8.3 61 3.8 E 20 28 11 15 1021.4 1021.2 0.0
28/07:00am 14.0 10.1 8.6 70 2.7 E 19 24 10 13 1021.1 1020.9 0.0
28/06:30am 11.8 8.5 8.1 78 1.8 ESE 15 20 8 11 1020.9 1020.7 0.0
28/06:00am 10.6 7.6 7.7 82 1.4 ESE 13 19 7 10 1020.7 1020.5 0.0
28/05:30am 10.8 7.4 7.7 81 1.5 ESE 15 19 8 10 1020.3 1020.1 0.0
28/05:00am 11.1 7.7 7.6 79 1.7 ESE 15 17 8 9 1020.3 1020.1 0.0
28/04:30am 11.6 7.8 7.7 77 1.9 ESE 17 20 9 11 1020.0 1019.8 0.0
28/04:00am 11.7 8.2 7.4 75 2.1 SE 15 19 8 10 1020.0 1019.8 0.0
28/03:30am 12.3 8.8 7.4 72 2.4 SE 15 20 8 11 1020.1 1019.9 0.0
28/03:00am 12.6 8.8 7.5 71 2.5 ESE 17 20 9 11 1020.0 1019.8 0.0
28/02:30am 12.8 9.4 7.5 70 2.6 ESE 15 19 8 10 1019.9 1019.7 0.0
28/02:00am 13.2 8.9 7.2 67 2.9 ESE 19 20 10 11 1020.1 1019.9 0.0
28/01:30am 13.4 10.2 7.0 65 3.1 SE 13 15 7 8 1020.2 1020.0 0.0
28/01:00am 14.5 10.5 6.8 60 3.8 SE 17 24 9 13 1020.2 1020.0 0.0
28/12:30am 15.2 10.8 6.7 57 4.2 SE 19 22 10 12 1020.4 1020.2 0.0
28/12:00am 15.4 11.4 6.7 56 4.3 SSE 17 20 9 11 1020.6 1020.4 0.0
 
Date/Time
CDT
Temp
°C
App
Temp
°C
Dew
Point
°C
Rel
Hum
%
Delta-T
°C
Wind Press
QNH
hPa
Press
MSL
hPa
Rain since
9am
mm
Dir  Spd
km/h
Gust
km/h
Spd
kts
Gust
kts
27/11:30pm 15.9 11.8 6.1 52 4.8 SSE 17 20 9 11 1020.4 1020.2 0.0
27/11:00pm 15.9 11.4 4.3 46 5.4 SSE 17 19 9 10 1020.3 1020.1 0.0
27/10:30pm 16.0 11.8 3.8 44 5.6 SE 15 17 8 9 1020.1 1019.9 0.0
27/10:00pm 15.2 10.9 3.4 45 5.4 SE 15 17 8 9 1020.0 1019.8 0.0
27/09:30pm 16.8 12.7 2.4 38 6.5 SE 13 15 7 8 1019.7 1019.5 0.0
27/09:00pm 19.4 15.0 2.7 33 7.8 SE 15 17 8 9 1019.5 1019.2 0.0
27/08:30pm 20.7 15.8 2.0 29 8.7 SE 17 20 9 11 1019.2 1018.9 0.0
27/08:00pm 22.2 16.9 1.8 26 9.6 ESE 19 26 10 14 1019.0 1018.7 0.0
27/07:30pm 23.7 18.4 2.0 24 10.3 ESE 19 26 10 14 1018.7 1018.4 0.0
27/07:00pm 24.6 18.6 0.8 21 11.1 ESE 22 30 12 16 1018.4 1018.1 0.0
27/06:30pm 25.3 19.1 0.0 19 11.7 SE 22 33 12 18 1018.2 1017.9 0.0
27/06:00pm 26.1 20.3 0.0 18 12.1 ESE 20 32 11 17 1017.9 1017.6 0.0
27/05:30pm 25.8 19.7 0.5 19 11.9 SE 22 32 12 17 1017.9 1017.6 0.0
27/05:00pm 26.4 21.0 -1.4 16 12.7 ESE 17 26 9 14 1017.8 1017.5 0.0
27/04:30pm 25.5 20.1 -1.3 17 12.1 SSE 17 32 9 17 1018.0 1017.7 0.0
27/04:00pm 26.2 21.1 0.8 19 12.0 SE 17 33 9 18 1018.3 1018.0 0.0
27/03:30pm 25.4 19.6 0.1 19 11.7 SE 20 30 11 16 1018.7 1018.4 0.0
27/03:00pm 24.1 19.4 1.1 22 10.8 SSE 15 32 8 17 1018.9 1018.6 0.0
27/02:30pm 24.5 19.1 1.4 22 10.9 SE 19 32 10 17 1019.2 1018.9 0.0
27/02:00pm 24.5 18.6 2.0 23 10.8 SE 22 35 12 19 1019.6 1019.3 0.0
27/01:30pm 24.0 19.3 3.3 26 10.1 SE 17 35 9 19 1019.9 1019.7 0.0
27/01:00pm 23.1 18.7 4.6 30 9.2 SSE 17 26 9 14 1020.2 1020.0 0.0
27/12:30pm 22.4 17.6 4.9 32 8.7 SSE 19 30 10 16 1020.4 1020.2 0.0
27/12:00pm 21.7 17.8 5.2 34 8.2 SSE 15 24 8 13 1020.7 1020.5 0.0
27/11:30am 21.6 17.5 6.3 37 7.7 SSE 17 32 9 17 1021.0 1020.8 0.0
27/11:00am 20.0 16.4 6.7 42 6.7 SE 15 28 8 15 1021.4 1021.2 0.0
27/10:30am 19.2 15.1 6.3 43 6.4 SE 17 28 9 15 1021.7 1021.5 0.0
27/10:00am 19.1 15.2 7.2 46 6.1 ESE 17 26 9 14 1022.0 1021.8 0.0
27/09:30am 17.6 12.7 6.8 49 5.4 SE 22 30 12 16 1022.2 1022.0 0.0
27/09:00am 17.0 12.1 7.1 52 4.9 ESE 22 32 12 17 1022.1 1021.9 0.0
27/08:30am 15.2 9.2 7.0 58 4.0 ESE 28 35 15 19 1021.8 1021.6 0.0
27/08:00am 14.4 8.1 7.2 62 3.5 ESE 30 39 16 21 1021.5 1021.3 0.0
27/07:30am 13.0 7.1 7.5 69 2.7 SE 28 37 15 20 1021.2 1021.0 0.0
27/07:00am 10.9 6.6 8.0 82 1.4 SE 20 26 11 14 1021.1 1020.9 0.0
27/06:30am 10.1 6.1 8.4 89 0.8 SSE 19 24 10 13 1020.9 1020.7 0.0
27/06:00am 9.3 5.6 7.9 91 0.7 SSE 17 22 9 12 1020.5 1020.3 0.0
27/05:30am 9.4 5.7 7.8 90 0.8 SSE 17 22 9 12 1020.3 1020.1 0.0
27/05:00am 9.8 6.5 8.1 89 0.8 SSE 15 20 8 11 1020.1 1019.9 0.0
27/04:30am 10.1 6.5 8.2 88 0.9 S 17 20 9 11 1019.8 1019.6 0.0
27/04:00am 10.4 6.8 8.2 86 1.1 SSE 17 20 9 11 1019.6 1019.3 0.0
27/03:30am 10.9 7.7 8.3 84 1.3 SSE 15 20 8 11 1019.4 1019.1 0.0
27/03:00am 11.4 7.8 8.4 82 1.5 SSE 17 20 9 11 1019.4 1019.1 0.0
27/02:30am 11.7 7.7 8.4 80 1.6 SSE 19 26 10 14 1019.4 1019.1 0.0
27/02:00am 12.1 8.1 8.4 78 1.8 SE 19 26 10 14 1019.4 1019.1 0.0
27/01:30am 12.6 8.0 8.3 75 2.1 SSE 22 32 12 17 1019.5 1019.2 0.0
27/01:00am 13.2 7.9 8.5 73 2.4 SE 26 33 14 18 1019.3 1019.0 0.0
27/12:30am 13.9 8.2 8.5 70 2.7 SE 28 35 15 19 1019.3 1019.0 0.0
27/12:00am 14.4 8.4 8.6 68 2.9 SSE 30 39 16 21 1019.3 1019.0 0.0
 
Date/Time
CDT
Temp
°C
App
Temp
°C
Dew
Point
°C
Rel
Hum
%
Delta-T
°C
Wind Press
QNH
hPa
Press
MSL
hPa
Rain since
9am
mm
Dir  Spd
km/h
Gust
km/h
Spd
kts
Gust
kts
26/11:30pm 14.9 9.2 8.4 65 3.3 SSE 28 41 15 22 1019.1 1018.8 0.0
26/11:00pm 15.3 10.5 9.0 66 3.2 SSE 24 30 13 16 1018.9 1018.6 0.0
26/10:30pm 15.9 11.0 10.0 68 3.1 SSE 26 33 14 18 1018.7 1018.4 0.0
26/10:00pm 16.1 11.8 10.6 70 2.9 SSE 24 30 13 16 1018.4 1018.1 0.0
26/09:30pm 16.5 12.2 10.8 69 3.1 S 24 33 13 18 1018.1 1017.8 0.0
26/09:00pm 17.1 12.1 10.9 67 3.3 S 28 35 15 19 1017.7 1017.4 0.0
26/08:30pm 18.0 13.0 10.9 63 3.8 S 28 37 15 20 1017.4 1017.1 0.0
26/08:00pm 18.9 13.1 10.7 59 4.5 S 32 43 17 23 1017.0 1016.7 0.0
26/07:30pm 20.4 14.5 10.5 53 5.4 SSE 32 46 17 25 1016.3 1016.0 0.0
26/07:00pm 21.3 15.1 9.9 48 6.2 SSE 33 43 18 23 1016.0 1015.7 0.0
26/06:30pm 22.5 16.7 9.3 43 7.1 SSE 30 44 16 24 1015.4 1015.1 0.0
26/06:00pm 23.1 17.8 8.4 39 7.8 SSE 26 39 14 21 1015.0 1014.7 0.0
26/05:30pm 23.3 16.8 8.2 38 8.0 SSE 32 43 17 23 1014.9 1014.6 0.0
26/05:00pm 23.6 17.6 8.5 38 8.1 SSE 30 46 16 25 1014.9 1014.6 0.0
26/04:30pm 23.9 18.2 8.3 37 8.3 SSE 28 39 15 21 1014.9 1014.6 0.0
26/04:00pm 23.0 16.5 6.7 35 8.4 SSE 30 41 16 22 1015.0 1014.7 0.0
26/03:30pm 22.7 15.8 6.5 35 8.3 SSE 32 48 17 26 1015.2 1014.9 0.0
26/03:00pm 22.6 15.8 6.8 36 8.1 SSE 32 43 17 23 1015.2 1014.9 0.0
26/02:30pm 22.4 15.5 6.6 36 8.1 S 32 44 17 24 1015.4 1015.1 0.0
26/02:00pm 22.4 15.3 6.2 35 8.3 SSE 33 48 18 26 1015.6 1015.3 0.0
26/01:46pm 22.7 16.0 5.6 33 8.6 SSE 30 50 16 27 1015.6 1015.3 0.0
26/01:30pm 22.2 15.0 5.2 33 8.5 S 32 44 17 24 1015.8 1015.5 0.0
26/01:00pm 21.3 14.0 4.4 33 8.3 S 32 50 17 27 1016.0 1015.7 0.0
26/12:58pm 20.9 13.6 4.5 34 8.0 S 32 50 17 27 1016.1 1015.8 0.0
26/12:30pm 20.5 13.1 4.1 34 7.9 S 32 43 17 23 1016.3 1016.0 0.0
26/12:00pm 19.4 11.8 4.0 36 7.4 S 33 43 18 23 1016.7 1016.4 0.0
26/11:30am 18.2 10.2 3.7 38 6.8 S 35 44 19 24 1016.9 1016.6 0.0
26/11:15am 18.3 10.9 4.1 39 6.8 S 32 50 17 27 1017.1 1016.8 0.0
26/11:00am 17.5 10.0 3.4 39 6.6 S 32 41 17 22 1017.2 1016.9 0.0
26/10:30am 16.7 9.2 3.7 42 6.0 S 32 43 17 23 1017.4 1017.1 0.0
26/10:00am 15.6 8.3 4.3 47 5.3 S 32 39 17 21 1017.7 1017.4 0.0
26/09:30am 14.6 5.9 4.0 49 4.9 S 39 50 21 27 1017.6 1017.3 0.0
26/09:00am 14.1 6.3 4.9 54 4.3 S 35 48 19 26 1017.7 1017.4 0.2
26/08:30am 13.6 5.4 5.0 56 4.0 SSE 37 48 20 26 1017.9 1017.6 0.2
26/08:00am 12.6 4.8 4.8 59 3.6 SSE 35 52 19 28 1017.5 1017.2 0.2
26/07:30am 11.9 5.2 5.8 66 2.9 S 30 44 16 24 1017.4 1017.1 0.2
26/07:00am 11.8 4.6 6.1 68 2.7 SSE 33 44 18 24 1017.4 1017.1 0.2
26/06:30am 11.9 5.7 6.2 68 2.7 SSE 28 39 15 21 1017.0 1016.7 0.2
26/06:00am 12.2 5.1 6.5 68 2.7 SSE 33 48 18 26 1016.6 1016.3 0.2
26/05:52am 12.2 5.2 6.9 70 2.6 SSE 33 54 18 29 1016.4 1016.1 0.2
26/05:30am 12.5 4.5 7.6 72 2.4 SSE 39 52 21 28 1016.0 1015.7 0.2
26/05:10am 12.5 5.7 7.6 72 2.4 SSE 33 52 18 28 1015.5 1015.2 0.2
26/05:00am 12.7 5.9 7.8 72 2.4 SSE 33 50 18 27 1015.3 1015.0 0.2
26/04:30am 13.0 6.6 8.7 75 2.2 SSE 32 43 17 23 1015.0 1014.7 0.2
26/04:00am 13.1 6.2 9.0 76 2.1 SSE 35 46 19 25 1014.7 1014.4 0.2
26/03:30am 13.4 7.2 9.5 77 2.0 SSE 32 43 17 23 1014.5 1014.2 0.2
26/03:00am 13.5 8.0 9.2 75 2.2 SSE 28 39 15 21 1014.5 1014.2 0.2
26/02:30am 13.4 7.5 9.1 75 2.2 SSE 30 43 16 23 1014.6 1014.3 0.2
26/02:02am 13.3 6.4 9.0 75 2.2 SSE 35 59 19 32 1014.6 1014.3 0.2
26/02:00am 13.3 6.8 9.0 75 2.2 SSE 33 48 18 26 1014.6 1014.3 0.2
26/01:30am 12.9 8.1 9.0 77 2.0 S 24 35 13 19 1014.7 1014.4 0.2
26/01:00am 12.9 7.8 9.2 78 1.9 S 26 35 14 19 1014.8 1014.5 0.2
26/12:30am 12.6 7.4 8.7 77 2.0 S 26 37 14 20 1014.9 1014.6 0.2
26/12:00am 13.0 7.0 8.5 74 2.3 SSE 30 39 16 21 1014.9 1014.6 0.2
 
Date/Time
CDT
Temp
°C
App
Temp
°C
Dew
Point
°C
Rel
Hum
%
Delta-T
°C
Wind Press
QNH
hPa
Press
MSL
hPa
Rain since
9am
mm
Dir  Spd
km/h
Gust
km/h
Spd
kts
Gust
kts
25/11:30pm 13.4 7.7 8.3 71 2.6 SSE 28 39 15 21 1014.8 1014.5 0.2
25/11:00pm 14.1 9.6 8.5 69 2.8 SSE 22 30 12 16 1014.6 1014.3 0.2
25/10:30pm 14.9 8.8 8.4 65 3.3 SSE 30 35 16 19 1014.3 1014.0 0.2
25/10:00pm 15.8 9.1 8.3 61 3.8 SSE 33 44 18 24 1013.8 1013.5 0.2
25/09:30pm 16.7 11.7 9.4 62 3.8 S 26 37 14 20 1013.8 1013.5 0.2
25/09:00pm 17.5 11.6 9.2 58 4.3 S 30 41 16 22 1012.9 1012.7 0.2
25/08:30pm 18.6 11.8 9.4 55 4.9 S 35 46 19 25 1012.2 1012.0 0.2
25/08:00pm 20.1 12.9 9.1 49 5.8 S 37 48 20 26 1011.6 1011.3 0.2
25/07:30pm 22.4 16.6 7.8 39 7.7 S 28 41 15 22 1011.1 1010.8 0.2
25/07:00pm 23.5 17.2 7.2 35 8.5 S 30 41 16 22 1010.4 1010.1 0.2
25/06:30pm 24.4 18.0 8.4 36 8.6 S 32 44 17 24 1009.9 1009.6 0.2
25/06:00pm 24.8 18.3 8.3 35 8.9 S 32 46 17 25 1009.5 1009.2 0.2
25/05:30pm 25.3 18.7 8.7 35 9.0 S 33 43 18 23 1009.5 1009.2 0.2
25/05:00pm 25.2 18.7 9.1 36 8.8 S 33 46 18 25 1009.4 1009.1 0.2
25/04:30pm 25.5 19.4 10.5 39 8.4 S 33 48 18 26 1009.6 1009.3 0.2
25/04:00pm 25.3 20.0 11.1 41 8.0 S 30 41 16 22 1009.6 1009.3 0.2
25/03:30pm 24.2 18.5 11.2 44 7.3 SSE 32 44 17 24 1009.8 1009.5 0.2
25/03:00pm 24.5 20.1 14.0 52 6.2 SSE 30 39 16 21 1009.8 1009.5 0.2
25/02:30pm 22.6 17.7 12.5 53 5.8 SSE 30 37 16 20 1010.2 1009.9 0.2
25/02:00pm 21.9 18.2 13.8 60 4.7 SSE 26 39 14 21 1010.5 1010.2 0.2
25/01:30pm 20.3 16.6 14.0 67 3.7 SSE 26 32 14 17 1010.8 1010.5 0.2
25/01:00pm 18.9 15.4 13.5 71 3.1 SSE 24 32 13 17 1011.2 1010.9 0.2
25/12:30pm 19.4 14.7 14.2 72 3.0 S 32 41 17 22 1011.4 1011.1 0.2
25/12:00pm 19.1 15.7 14.8 76 2.5 S 26 37 14 20 1011.5 1011.2 0.2
25/11:30am 18.9 15.8 14.4 75 2.6 S 24 32 13 17 1011.6 1011.3 0.2
25/11:00am 18.5 14.3 14.6 78 2.3 S 30 37 16 20 1011.7 1011.4 0.0

Other formats

Comma delimited format used in spreadsheet applications
http://www.bom.gov.au/fwo/IDS60801/IDS60801.94690.axf

JavaScript Object Notation format (JSON) in row-major order
http://www.bom.gov.au/fwo/IDS60801/IDS60801.94690.json

Data quality

Most of these data are generated automatically and are frequently updated. Quality checks on data are not normally performed. It is possible for incorrect values to appear. Refer to information at About Latest Weather Observations and please check the disclaimer before using these data.